createdAt,value
2023-02-09T00:08:19.490Z,90.20
2023-02-09T00:23:28.236Z,94.28
2023-02-09T00:29:23.044Z,92.76
2023-02-09T00:55:06.395Z,93.39
2023-02-09T01:51:44.373Z,88.34
2023-02-09T02:07:01.104Z,88.92
2023-02-09T02:11:52.806Z,88.31
2023-02-09T02:27:44.945Z,96.72
2023-02-09T02:32:34.826Z,95.05
2023-02-09T02:52:42.644Z,94.28
2023-02-09T02:57:26.266Z,92.13
2023-02-09T03:02:36.228Z,93.27
2023-02-09T03:12:44.117Z,96.89
2023-02-09T03:22:45.913Z,95.67
2023-02-09T03:37:38.984Z,95.05
2023-02-09T03:42:45.559Z,93.04
2023-02-09T03:47:26.162Z,92.45
2023-02-09T03:56:55.520Z,93.58
2023-02-09T04:01:23.322Z,93.68
2023-02-09T04:05:58.741Z,93.78
2023-02-09T04:30:40.173Z,96.61
2023-02-09T04:35:28.098Z,96.25
2023-02-09T04:55:51.502Z,91.97
2023-02-09T05:11:14.850Z,89.26
2023-02-09T05:16:18.000Z,87.93
2023-02-09T05:26:24.728Z,87.17
2023-02-09T05:31:19.983Z,87.43
2023-02-09T05:41:52.094Z,87.44
2023-02-09T05:47:04.342Z,87.39
2023-02-09T05:51:23.810Z,87.47
2023-02-09T05:56:34.916Z,87.63
2023-02-09T06:00:38.378Z,87.67
2023-02-09T06:05:09.687Z,87.65
2023-02-09T06:15:14.898Z,87.45
2023-02-09T06:24:20.270Z,87.22
2023-02-09T06:28:38.355Z,86.11
2023-02-09T06:33:27.993Z,86.05
2023-02-09T06:37:55.777Z,85.35
2023-02-09T06:42:20.027Z,84.24
2023-02-09T06:46:36.327Z,83.25
2023-02-09T06:51:05.897Z,81.91
2023-02-09T06:55:16.572Z,81.14
2023-02-09T06:59:50.873Z,81.28
2023-02-09T07:03:58.480Z,80.14
2023-02-09T07:08:01.410Z,80.88
2023-02-09T07:12:32.462Z,80.60
2023-02-09T07:16:49.227Z,79.35
2023-02-09T07:21:04.697Z,79.59
2023-02-09T07:25:25.586Z,79.02
2023-02-09T07:29:25.870Z,79.19
2023-02-09T07:33:36.752Z,79.03
2023-02-09T07:37:44.899Z,79.27
2023-02-09T07:41:57.999Z,79.50
2023-02-09T07:46:12.165Z,79.43
2023-02-09T07:50:19.266Z,78.47
2023-02-09T07:54:41.645Z,78.64
2023-02-09T07:58:45.150Z,78.44
2023-02-09T08:02:47.228Z,79.73
2023-02-09T08:07:01.113Z,81.39
2023-02-09T08:11:05.438Z,78.29
2023-02-09T08:15:08.260Z,76.84
2023-02-09T08:19:25.330Z,76.57
2023-02-09T08:23:29.457Z,76.94
2023-02-09T08:27:35.929Z,76.48
2023-02-09T08:31:41.029Z,77.70
2023-02-09T08:35:43.187Z,75.13
2023-02-09T08:39:50.662Z,76.10
2023-02-09T08:43:54.861Z,75.21
2023-02-09T08:47:59.683Z,75.22
2023-02-09T08:52:07.901Z,69.29
2023-02-09T08:56:13.801Z,69.48
2023-02-09T09:00:14.653Z,70.53
2023-02-09T09:04:16.798Z,72.51
2023-02-09T09:08:19.360Z,71.19
2023-02-09T09:12:28.044Z,70.22
2023-02-09T09:16:37.657Z,70.15
2023-02-09T09:20:43.321Z,71.37
2023-02-09T09:24:46.934Z,69.52
2023-02-09T09:28:57.616Z,71.39
2023-02-09T09:33:03.500Z,71.19
2023-02-09T09:37:09.750Z,69.36
2023-02-09T09:41:29.218Z,68.97
2023-02-09T09:45:35.133Z,69.64
2023-02-09T09:49:35.536Z,67.64
2023-02-09T09:53:47.336Z,67.67
2023-02-09T09:57:49.825Z,66.69
2023-02-09T10:01:54.560Z,65.20
2023-02-09T10:05:58.891Z,65.18
2023-02-09T10:10:05.672Z,67.11
2023-02-09T10:14:06.977Z,64.97
2023-02-09T10:22:37.389Z,64.18
2023-02-09T10:26:47.974Z,63.15
2023-02-09T10:30:52.435Z,62.76
2023-02-09T10:35:01.849Z,61.99
2023-02-09T10:39:16.189Z,63.21
2023-02-09T10:43:26.243Z,62.78
2023-02-09T10:47:29.597Z,61.66
2023-02-09T10:51:34.624Z,61.29
2023-02-09T10:55:42.061Z,63.57
2023-02-09T10:59:56.491Z,62.74
2023-02-09T11:04:09.691Z,61.07
2023-02-09T11:08:21.199Z,60.10
2023-02-09T11:12:42.350Z,60.06
2023-02-09T11:43:36.937Z,57.41
2023-02-09T11:48:27.232Z,57.55
2023-02-09T11:53:14.791Z,56.30
2023-02-09T11:57:38.362Z,54.50
2023-02-09T12:01:46.272Z,54.75
2023-02-09T12:05:51.516Z,55.22
2023-02-09T12:09:59.324Z,53.42
2023-02-09T12:14:08.158Z,50.98
2023-02-09T12:18:15.970Z,52.42
2023-02-09T12:23:15.221Z,51.09
2023-02-09T12:27:37.438Z,51.25
2023-02-09T12:32:06.407Z,50.60
2023-02-09T12:36:30.117Z,49.53
2023-02-09T12:40:38.849Z,51.54
2023-02-09T12:45:06.078Z,49.60
2023-02-09T12:49:35.159Z,51.70
2023-02-09T12:54:04.332Z,49.92
2023-02-09T12:58:27.401Z,49.49
2023-02-09T13:03:01.568Z,49.71
2023-02-09T13:07:27.068Z,51.01
2023-02-09T13:11:57.498Z,51.53
2023-02-09T13:16:20.637Z,51.03
2023-02-09T13:20:51.724Z,49.82
2023-02-09T13:25:03.937Z,50.60
2023-02-09T13:29:29.259Z,49.59
2023-02-09T13:33:56.629Z,50.27
2023-02-09T13:38:21.619Z,50.68
2023-02-09T13:42:41.636Z,51.23
2023-02-09T13:47:00.185Z,50.98
2023-02-09T13:51:08.641Z,51.16
2023-02-09T13:55:19.947Z,51.18
2023-02-09T13:59:36.943Z,51.42
2023-02-09T14:04:13.345Z,50.95
2023-02-09T14:08:30.107Z,52.68
2023-02-09T14:13:12.561Z,52.37
2023-02-09T14:17:41.240Z,52.97
2023-02-09T14:21:58.062Z,52.42
2023-02-09T14:26:44.289Z,52.83
2023-02-09T14:30:59.001Z,53.33
2023-02-09T14:35:19.790Z,53.27
2023-02-09T14:39:30.234Z,54.24
2023-02-09T14:44:12.988Z,54.13
2023-02-09T14:48:23.884Z,54.01
2023-02-09T14:52:56.145Z,54.10
2023-02-09T14:57:10.200Z,53.81
2023-02-09T15:01:20.821Z,53.81
2023-02-09T15:11:25.584Z,54.84
2023-02-09T15:20:07.593Z,56.70
2023-02-09T15:28:42.973Z,56.45
2023-02-09T15:33:37.253Z,57.25
2023-02-09T15:38:09.763Z,57.87
2023-02-09T15:42:33.748Z,57.46
2023-02-09T15:46:56.611Z,57.22
2023-02-09T15:51:06.448Z,58.37
2023-02-09T15:55:11.101Z,58.77
2023-02-09T15:59:41.641Z,59.39
2023-02-09T16:08:55.322Z,59.93
2023-02-09T16:18:24.581Z,60.83
2023-02-09T16:22:33.234Z,60.67
2023-02-09T16:27:25.010Z,61.13
2023-02-09T16:32:18.327Z,62.38
2023-02-09T16:37:02.584Z,63.44
2023-02-09T16:41:58.842Z,64.44
2023-02-09T16:46:55.354Z,64.62
2023-02-09T16:51:43.662Z,64.56
2023-02-09T16:56:10.333Z,64.78
2023-02-09T17:00:43.277Z,65.54
2023-02-09T17:05:14.926Z,66.78
2023-02-09T17:09:38.114Z,65.59
2023-02-09T17:14:05.826Z,67.02
2023-02-09T17:18:55.898Z,67.00
2023-02-09T17:23:29.956Z,66.67
2023-02-09T17:37:54.171Z,67.25
2023-02-09T17:47:47.296Z,67.15
2023-02-09T17:52:11.874Z,68.46
2023-02-09T17:56:45.916Z,69.03
2023-02-09T18:11:42.756Z,69.22
2023-02-09T18:21:35.326Z,71.25
2023-02-09T18:26:08.279Z,71.10
2023-02-09T18:42:14.022Z,72.33
2023-02-09T18:54:59.397Z,72.96
2023-02-09T18:57:08.990Z,74.58
2023-02-09T19:06:50.992Z,75.19
2023-02-09T19:16:43.917Z,78.75
2023-02-09T19:32:08.117Z,81.11
2023-02-09T19:46:26.576Z,81.18
2023-02-09T19:55:48.676Z,82.61
2023-02-09T20:00:32.227Z,82.85
2023-02-09T20:10:32.214Z,82.17
2023-02-09T20:15:00.901Z,81.74
2023-02-09T21:29:01.196Z,82.29
2023-02-09T22:07:31.388Z,86.96
2023-02-09T22:22:28.437Z,86.80
2023-02-09T22:27:14.559Z,86.91
2023-02-09T22:32:46.175Z,87.44
2023-02-09T22:37:35.531Z,87.36
2023-02-09T22:47:55.599Z,86.27
2023-02-09T23:03:41.675Z,86.03
2023-02-09T23:19:21.992Z,85.18
2023-02-09T23:45:22.988Z,80.79
2023-02-09T23:55:30.328Z,80.79
